Terminal Aerodrome Forecast
Issued by NWS Portland, OR

Current Version | Previous Version | Text Only | Print | Product List | Glossary On
Versions: 1 2 3 4 5 6 7 8 9 10 11 12 13 14 15 16 17 18 19 20 21 22 23 24 25 26 27 28 29 30 31 32 33 34 35 36 37 38 39 40
655
FTUS46 KPQR 080544
TAFEUG
TAF
KEUG 080544Z 0806/0906 02011KT P6SM OVC200
     FM080900 02008KT P6SM FEW008 BKN050 OVC100
     FM081300 02009KT 1SM -SN BR SCT008 BKN015 OVC050
     FM081500 03008KT 2SM -FZRA BR BKN008 OVC015
     FM081900 04008KT 2SM -RA BR BKN008 OVC015
     FM082300 18009KT 6SM -RA BR SCT008 BKN015 OVC025=

USA.gov is the U.S. government's official web portal to all federal, state and local government web resources and services.